createdAt,value
2022-11-22T00:00:12.644Z,95262.13
2022-11-22T00:03:14.231Z,95271.84
2022-11-22T00:06:15.774Z,95264.16
2022-11-22T00:09:17.344Z,95281.56
2022-11-22T00:12:18.894Z,95284.22
2022-11-22T00:15:20.481Z,95295.34
2022-11-22T00:18:21.963Z,95294.50
2022-11-22T00:21:23.532Z,95300.22
2022-11-22T00:24:25.059Z,95296.75
2022-11-22T00:27:27.018Z,95296.16
2022-11-22T00:30:28.763Z,95306.91
2022-11-22T00:33:30.480Z,95314.19
2022-11-22T00:36:32.004Z,95316.81
2022-11-22T00:39:33.608Z,95304.91
2022-11-22T00:42:35.170Z,95310.38
2022-11-22T00:45:36.697Z,95318.47
2022-11-22T00:48:38.342Z,95326.38
2022-11-22T00:51:40.459Z,95322.53
2022-11-22T00:54:42.005Z,95331.03
2022-11-22T00:57:43.518Z,95330.22
2022-11-22T01:00:45.158Z,95317.66
2022-11-22T01:03:46.836Z,95331.63
2022-11-22T01:06:48.374Z,95339.53
2022-11-22T01:09:49.998Z,95341.16
2022-11-22T01:12:51.499Z,95342.34
2022-11-22T01:15:53.455Z,95344.97
2022-11-22T01:18:55.083Z,95344.78
2022-11-22T01:21:56.782Z,95350.44
2022-11-22T01:24:58.344Z,95352.47
2022-11-22T01:27:59.901Z,95349.66
2022-11-22T01:31:01.453Z,95359.59
2022-11-22T01:34:05.293Z,95366.44
2022-11-22T01:37:07.163Z,95368.28
2022-11-22T01:40:11.053Z,95369.91
2022-11-22T01:43:21.498Z,95382.06
2022-11-22T01:46:37.382Z,95358.19
2022-11-22T01:49:41.991Z,95361.03
2022-11-22T01:52:43.512Z,95364.50
2022-11-22T01:55:45.754Z,95374.63
2022-11-22T01:58:51.744Z,95374.63
2022-11-22T02:01:54.173Z,95375.81
2022-11-22T02:04:58.436Z,95372.78
2022-11-22T02:08:05.896Z,95382.72
2022-11-22T02:11:09.578Z,95379.88
2022-11-22T02:14:12.208Z,95373.81
2022-11-22T02:17:13.803Z,95377.25
2022-11-22T02:20:17.269Z,95371.00
2022-11-22T02:23:48.031Z,95379.50
2022-11-22T02:26:49.680Z,95380.50
2022-11-22T02:29:51.379Z,95377.69
2022-11-22T02:32:52.916Z,95382.94
2022-11-22T02:35:55.118Z,95374.44
2022-11-22T02:38:56.795Z,95389.22
2022-11-22T02:41:58.442Z,95383.78
2022-11-22T02:44:59.933Z,95386.59
2022-11-22T02:48:10.235Z,95397.53
2022-11-22T02:51:17.011Z,95409.66
2022-11-22T02:54:19.630Z,95403.19
2022-11-22T02:57:21.174Z,95404.38
2022-11-22T03:00:23.085Z,95395.91
2022-11-22T03:03:24.611Z,95400.13
2022-11-22T03:06:26.305Z,95406.41
2022-11-22T03:09:28.707Z,95404.78
2022-11-22T03:12:30.548Z,95395.91
2022-11-22T03:15:32.243Z,95394.69
2022-11-22T03:18:34.655Z,95399.13
2022-11-22T03:21:37.803Z,95401.59
2022-11-22T03:24:39.406Z,95413.28
2022-11-22T03:27:40.999Z,95405.41
2022-11-22T03:30:42.549Z,95409.06
2022-11-22T03:33:44.119Z,95405.19
2022-11-22T03:36:45.939Z,95412.28
2022-11-22T03:39:47.546Z,95417.53
2022-11-22T03:42:49.120Z,95406.03
2022-11-22T03:45:50.705Z,95408.66
2022-11-22T03:48:54.310Z,95412.91
2022-11-22T03:51:55.892Z,95410.69
2022-11-22T03:54:57.473Z,95403.59
2022-11-22T03:57:59.118Z,95415.31
2022-11-22T04:01:01.456Z,95412.69
2022-11-22T04:04:03.203Z,95415.31
2022-11-22T04:07:04.762Z,95419.78
2022-11-22T04:10:07.228Z,95421.81
2022-11-22T04:13:08.777Z,95423.41
2022-11-22T04:16:10.294Z,95425.63
2022-11-22T04:19:11.916Z,95423.41
2022-11-22T04:22:13.427Z,95429.47
2022-11-22T04:25:15.081Z,95420.97
2022-11-22T04:28:18.983Z,95423.81
2022-11-22T04:31:38.852Z,95425.22
2022-11-22T04:34:40.470Z,95419.56
2022-11-22T04:37:43.228Z,95427.44
2022-11-22T04:40:45.530Z,95426.66
2022-11-22T04:44:05.504Z,95443.63
2022-11-22T04:47:08.717Z,95440.56
2022-11-22T04:50:39.295Z,95449.91
2022-11-22T04:53:40.882Z,95444.22
2022-11-22T04:56:42.395Z,95437.97
2022-11-22T04:59:44.204Z,95442.19
2022-11-22T05:02:45.711Z,95442.19
2022-11-22T05:05:47.253Z,95441.56
2022-11-22T05:08:48.768Z,95439.16
2022-11-22T05:11:50.284Z,95448.44
2022-11-22T05:14:51.863Z,95449.66
2022-11-22T05:17:53.448Z,95464.41
2022-11-22T05:20:55.219Z,95470.06
2022-11-22T05:23:57.157Z,95474.69
2022-11-22T05:26:58.708Z,95469.84
2022-11-22T05:30:00.317Z,95463.00
2022-11-22T05:33:01.775Z,95472.72
2022-11-22T05:36:03.962Z,95471.06
2022-11-22T05:39:05.468Z,95468.84
2022-11-22T05:42:07.270Z,95465.78
2022-11-22T05:45:11.562Z,95480.13
2022-11-22T05:48:13.498Z,95474.09
2022-11-22T05:51:18.106Z,95471.03
2022-11-22T05:54:22.734Z,95473.88
2022-11-22T05:57:24.255Z,95481.75
2022-11-22T06:00:30.736Z,95478.31
2022-11-22T06:03:32.647Z,95492.44
2022-11-22T06:06:34.133Z,95491.22
2022-11-22T06:09:35.771Z,95493.25
2022-11-22T06:12:37.314Z,95499.69
2022-11-22T06:15:38.806Z,95503.13
2022-11-22T06:18:40.510Z,95500.69
2022-11-22T06:21:42.452Z,95510.78
2022-11-22T06:24:44.033Z,95512.81
2022-11-22T06:27:45.618Z,95510.56
2022-11-22T06:30:47.216Z,95512.56
2022-11-22T06:33:48.820Z,95529.50
2022-11-22T06:36:50.467Z,95530.72
2022-11-22T06:39:51.937Z,95537.59
2022-11-22T06:42:53.446Z,95546.91
2022-11-22T06:45:59.335Z,95550.91
2022-11-22T06:49:00.942Z,95552.31
2022-11-22T06:52:02.454Z,95553.13
2022-11-22T06:55:07.948Z,95563.38
2022-11-22T06:58:09.826Z,95575.47
2022-11-22T07:01:20.125Z,95574.66
2022-11-22T07:04:21.840Z,95568.75
2022-11-22T07:07:23.392Z,95582.69
2022-11-22T07:10:25.005Z,95590.75
2022-11-22T07:13:27.049Z,95596.81
2022-11-22T07:16:28.598Z,95618.09
2022-11-22T07:19:30.553Z,95618.09
2022-11-22T07:22:32.470Z,95619.91
2022-11-22T07:25:34.027Z,95622.34
2022-11-22T07:28:35.913Z,95628.03
2022-11-22T07:31:37.423Z,95620.97
2022-11-22T07:34:38.932Z,95628.47
2022-11-22T07:37:40.452Z,95629.28
2022-11-22T07:40:42.042Z,95632.53
2022-11-22T07:43:44.257Z,95648.53
2022-11-22T07:46:47.870Z,95645.91
2022-11-22T07:49:49.336Z,95646.34
2022-11-22T07:53:00.514Z,95656.25
2022-11-22T07:56:03.310Z,95650.13
2022-11-22T07:59:04.924Z,95646.88
2022-11-22T08:02:06.497Z,95657.00
2022-11-22T08:05:08.407Z,95650.75
2022-11-22T08:08:09.940Z,95649.16
2022-11-22T08:11:12.248Z,95653.84
2022-11-22T08:14:13.883Z,95653.31
2022-11-22T08:17:15.528Z,95666.31
2022-11-22T08:20:17.140Z,95669.19
2022-11-22T08:23:18.921Z,95657.09
2022-11-22T08:26:21.172Z,95655.44
2022-11-22T08:29:22.776Z,95653.84
2022-11-22T08:32:24.254Z,95649.06
2022-11-22T08:35:25.876Z,95653.16
2022-11-22T08:38:27.750Z,95636.19
2022-11-22T08:41:29.498Z,95640.69
2022-11-22T08:44:31.164Z,95643.97
2022-11-22T08:47:32.820Z,95649.84
2022-11-22T08:50:34.399Z,95639.75
2022-11-22T08:53:42.273Z,95645.41
2022-11-22T08:56:43.779Z,95650.91
2022-11-22T08:59:45.391Z,95644.84
2022-11-22T09:02:46.950Z,95641.41
2022-11-22T09:12:31.969Z,95633.13
2022-11-22T09:15:34.151Z,95630.03
2022-11-22T09:18:36.259Z,95628.22
2022-11-22T09:21:37.825Z,95649.63
2022-11-22T09:24:39.441Z,95657.50
2022-11-22T09:27:40.948Z,95649.66
2022-11-22T09:30:42.418Z,95651.28
2022-11-22T09:33:47.125Z,95649.25
2022-11-22T09:36:48.650Z,95650.50
2022-11-22T09:39:50.367Z,95651.34
2022-11-22T09:43:04.844Z,95651.38
2022-11-22T09:46:22.007Z,95663.97
2022-11-22T09:49:34.352Z,95657.06
2022-11-22T09:52:53.927Z,95666.97
2022-11-22T09:56:00.699Z,95659.88
2022-11-22T09:59:07.915Z,95666.97
2022-11-22T10:02:29.593Z,95664.63
2022-11-22T10:05:35.856Z,95675.56
2022-11-22T10:08:43.241Z,95676.34
2022-11-22T10:12:27.663Z,95681.22
2022-11-22T10:15:39.135Z,95682.84
2022-11-22T10:18:54.183Z,95686.09
2022-11-22T10:21:55.746Z,95687.91
2022-11-22T10:25:00.166Z,95691.69
2022-11-22T10:28:13.795Z,95664.03
2022-11-22T10:31:28.188Z,95679.63
2022-11-22T10:34:38.802Z,95690.72
2022-11-22T10:38:01.900Z,95685.69
2022-11-22T10:41:03.512Z,95673.19
2022-11-22T10:44:08.031Z,95674.84
2022-11-22T10:47:09.585Z,95670.00
2022-11-22T10:50:22.069Z,95669.22
2022-11-22T10:53:44.806Z,95682.19
2022-11-22T10:56:53.469Z,95666.78
2022-11-22T11:00:18.446Z,95670.03
2022-11-22T11:03:25.099Z,95679.56
2022-11-22T11:06:57.030Z,95670.22
2022-11-22T11:13:27.159Z,95656.16
2022-11-22T11:16:36.350Z,95650.41
2022-11-22T11:19:41.792Z,95647.50
2022-11-22T11:26:25.604Z,95634.59
2022-11-22T11:29:37.693Z,95646.59
2022-11-22T11:32:55.167Z,95662.88
2022-11-22T11:36:03.665Z,95650.13
2022-11-22T11:39:19.092Z,95651.38
2022-11-22T11:42:26.728Z,95653.63
2022-11-22T11:45:29.199Z,95638.53
2022-11-22T11:48:41.246Z,95644.34
2022-11-22T11:51:44.019Z,95637.41
2022-11-22T11:54:48.080Z,95625.63
2022-11-22T11:57:51.590Z,95626.66
2022-11-22T12:00:53.174Z,95620.94
2022-11-22T12:04:01.924Z,95637.88
2022-11-22T12:07:16.813Z,95632.88
2022-11-22T12:10:41.185Z,95627.84
2022-11-22T12:17:28.414Z,95640.03
2022-11-22T12:20:41.724Z,95618.94
2022-11-22T12:24:41.309Z,95623.41
2022-11-22T12:27:32.737Z,95614.22
2022-11-22T12:30:34.870Z,95614.41
2022-11-22T12:33:46.648Z,95612.13
2022-11-22T12:36:56.389Z,95607.69
2022-11-22T12:40:03.039Z,95600.97
2022-11-22T12:43:12.115Z,95601.81
2022-11-22T12:46:19.863Z,95602.81
2022-11-22T12:49:30.540Z,95591.88
2022-11-22T12:52:39.829Z,95593.75
2022-11-22T12:56:10.801Z,95589.09
2022-11-22T12:59:34.795Z,95589.47
2022-11-22T13:02:46.901Z,95573.13
2022-11-22T13:05:58.027Z,95573.44
2022-11-22T13:09:05.120Z,95574.94
2022-11-22T13:12:13.733Z,95576.34
2022-11-22T13:15:25.755Z,95577.19
2022-11-22T13:18:32.499Z,95580.31
2022-11-22T13:22:09.307Z,95571.81
2022-11-22T13:25:10.786Z,95570.94
2022-11-22T13:28:25.225Z,95568.59
2022-11-22T13:31:26.616Z,95560.06
2022-11-22T13:34:28.884Z,95575.91
2022-11-22T13:37:36.486Z,95566.94
2022-11-22T13:40:52.359Z,95567.13
2022-11-22T13:44:15.668Z,95572.41
2022-11-22T13:47:17.284Z,95572.72
2022-11-22T13:50:40.525Z,95571.16
2022-11-22T13:53:46.929Z,95565.75
2022-11-22T13:57:00.145Z,95577.31
2022-11-22T14:00:14.170Z,95568.00
2022-11-22T14:03:15.862Z,95568.78
2022-11-22T14:06:23.535Z,95569.13
2022-11-22T14:09:43.470Z,95581.56
2022-11-22T14:12:54.196Z,95584.88
2022-11-22T14:16:21.511Z,95587.13
2022-11-22T14:19:41.682Z,95594.63
2022-11-22T14:23:06.527Z,95598.69
2022-11-22T14:26:28.258Z,95591.41
2022-11-22T14:29:53.491Z,95600.91
2022-11-22T14:33:04.907Z,95599.13
2022-11-22T14:36:06.501Z,95596.69
2022-11-22T14:39:45.032Z,95599.53
2022-11-22T14:42:50.678Z,95603.19
2022-11-22T14:45:55.375Z,95609.22
2022-11-22T14:49:04.599Z,95599.94
2022-11-22T14:52:20.080Z,95618.38
2022-11-22T14:55:26.538Z,95617.16
2022-11-22T14:58:30.042Z,95610.47
2022-11-22T15:01:56.508Z,95617.53
2022-11-22T15:09:22.562Z,95628.06
2022-11-22T15:09:46.451Z,95631.94
2022-11-22T15:13:17.543Z,95629.50
2022-11-22T15:58:03.139Z,95680.06
2022-11-22T16:01:19.459Z,95681.28
2022-11-22T16:04:34.885Z,95688.19
2022-11-22T16:07:39.416Z,95692.63
2022-11-22T16:10:42.559Z,95694.03
2022-11-22T16:13:44.173Z,95696.47
2022-11-22T16:16:45.630Z,95705.34
2022-11-22T16:19:47.300Z,95708.00
2022-11-22T16:23:10.477Z,95710.84
2022-11-22T16:26:17.687Z,95715.06
2022-11-22T16:29:32.551Z,95714.09
2022-11-22T16:32:34.715Z,95721.38
2022-11-22T16:35:36.497Z,95709.59
2022-11-22T16:38:38.071Z,95721.97
2022-11-22T16:41:39.634Z,95723.59
2022-11-22T16:44:41.227Z,95734.53
2022-11-22T16:47:43.579Z,95735.94
2022-11-22T16:50:47.561Z,95726.22
2022-11-22T16:53:50.635Z,95726.63
2022-11-22T16:56:52.244Z,95722.97
2022-11-22T16:59:54.345Z,95719.72
2022-11-22T17:02:56.338Z,95718.75
2022-11-22T17:05:57.831Z,95718.09
2022-11-22T17:09:00.452Z,95717.91
2022-11-22T17:12:02.424Z,95727.41
2022-11-22T17:15:04.166Z,95733.69
2022-11-22T17:18:05.690Z,95743.81
2022-11-22T17:21:24.063Z,95752.53
2022-11-22T17:24:25.628Z,95747.03
2022-11-22T17:27:27.106Z,95752.72
2022-11-22T17:30:28.643Z,95755.53
2022-11-22T17:33:30.231Z,95763.25
2022-11-22T17:36:34.190Z,95770.72
2022-11-22T17:39:38.415Z,95760.56
2022-11-22T17:42:41.451Z,95770.72
2022-11-22T17:45:43.634Z,95767.06
2022-11-22T17:48:52.811Z,95767.06
2022-11-22T17:51:54.396Z,95782.84
2022-11-22T17:54:58.352Z,95789.75
2022-11-22T17:58:03.767Z,95785.28
2022-11-22T18:01:07.151Z,95770.31
2022-11-22T18:04:08.825Z,95787.31
2022-11-22T18:07:13.249Z,95780.00
2022-11-22T18:10:17.914Z,95788.53
2022-11-22T18:13:21.857Z,95789.69
2022-11-22T18:16:28.402Z,95792.94
2022-11-22T18:19:30.428Z,95787.25
2022-11-22T18:22:32.206Z,95795.81
2022-11-22T18:25:33.777Z,95796.19
2022-11-22T18:28:36.116Z,95798.44
2022-11-22T18:31:51.152Z,95796.00
2022-11-22T18:34:53.720Z,95806.69
2022-11-22T18:37:55.345Z,95796.94
2022-11-22T18:41:00.948Z,95792.88
2022-11-22T18:44:07.028Z,95804.44
2022-11-22T18:47:10.294Z,95810.72
2022-11-22T18:53:19.609Z,95820.63
2022-11-22T18:56:21.214Z,95812.72
2022-11-22T18:59:22.941Z,95821.25
2022-11-22T19:02:25.900Z,95830.94
2022-11-22T19:05:27.709Z,95837.00
2022-11-22T19:08:29.230Z,95828.09
2022-11-22T19:11:32.042Z,95835.75
2022-11-22T19:14:33.910Z,95837.00
2022-11-22T19:17:39.840Z,95833.75
2022-11-22T19:20:55.288Z,95837.38
2022-11-22T19:23:57.620Z,95836.81
2022-11-22T19:26:59.843Z,95841.25
2022-11-22T19:30:01.771Z,95831.72
2022-11-22T19:33:03.443Z,95844.69
2022-11-22T19:36:07.897Z,95845.69
2022-11-22T19:39:14.979Z,95856.22
2022-11-22T19:42:17.707Z,95841.38
2022-11-22T19:45:19.329Z,95842.19
2022-11-22T19:48:20.956Z,95842.16
2022-11-22T19:51:23.664Z,95839.72
2022-11-22T19:54:25.273Z,95835.88
2022-11-22T19:57:26.791Z,95834.28
2022-11-22T20:00:34.805Z,95838.94
2022-11-22T20:03:38.527Z,95834.72
2022-11-22T20:06:40.335Z,95838.16
2022-11-22T20:09:41.887Z,95833.44
2022-11-22T20:12:43.990Z,95837.53
2022-11-22T20:15:45.568Z,95838.50
2022-11-22T20:18:47.330Z,95839.34
2022-11-22T20:21:49.517Z,95847.19
2022-11-22T20:24:51.395Z,95842.47
2022-11-22T20:27:53.063Z,95840.28
2022-11-22T20:31:14.781Z,95827.72
2022-11-22T20:34:16.386Z,95846.06
2022-11-22T20:37:17.959Z,95848.94
2022-11-22T20:40:19.967Z,95847.75
2022-11-22T20:43:21.522Z,95844.69
2022-11-22T20:46:25.754Z,95843.69
2022-11-22T20:49:28.230Z,95854.56
2022-11-22T20:52:29.713Z,95849.72
2022-11-22T20:55:31.231Z,95860.69
2022-11-22T20:58:33.155Z,95856.22
2022-11-22T21:01:34.864Z,95867.97
2022-11-22T21:04:36.826Z,95864.91
2022-11-22T21:07:38.301Z,95867.72
2022-11-22T21:10:39.792Z,95874.63
2022-11-22T21:13:42.744Z,95880.50
2022-11-22T21:16:44.300Z,95876.88
2022-11-22T21:19:45.838Z,95880.75
2022-11-22T21:22:52.378Z,95875.69
2022-11-22T21:25:53.863Z,95885.81
2022-11-22T21:28:56.198Z,95888.25
2022-11-22T21:31:58.051Z,95890.06
2022-11-22T21:34:59.511Z,95900.41
2022-11-22T21:38:00.983Z,95898.38
2022-11-22T21:41:24.309Z,95901.63
2022-11-22T21:44:26.335Z,95894.53
2022-11-22T21:47:27.850Z,95912.56
2022-11-22T21:50:29.339Z,95898.38
2022-11-22T21:53:31.595Z,95895.31
2022-11-22T21:56:33.178Z,95896.97
2022-11-22T21:59:35.694Z,95890.66
2022-11-22T22:02:37.177Z,95886.13
2022-11-22T22:05:38.707Z,95892.41
2022-11-22T22:08:40.799Z,95887.16
2022-11-22T22:11:45.555Z,95887.16
2022-11-22T22:14:47.393Z,95899.28
2022-11-22T22:17:52.519Z,95892.78
2022-11-22T22:21:02.002Z,95890.28
2022-11-22T22:24:03.936Z,95889.03
2022-11-22T22:27:05.392Z,95886.56
2022-11-22T22:30:08.730Z,95889.84
2022-11-22T22:33:10.172Z,95886.22
2022-11-22T22:36:11.763Z,95892.09
2022-11-22T22:39:13.262Z,95890.28
2022-11-22T22:42:15.244Z,95901.44
2022-11-22T22:45:16.745Z,95898.41
2022-11-22T22:48:19.023Z,95904.50
2022-11-22T22:51:31.917Z,95902.66
2022-11-22T22:54:34.728Z,95900.41
2022-11-22T22:57:36.175Z,95903.03
2022-11-22T23:00:37.685Z,95899.03
2022-11-22T23:03:39.952Z,95902.94
2022-11-22T23:06:41.436Z,95907.34
2022-11-22T23:09:42.963Z,95899.88
2022-11-22T23:12:44.398Z,95894.97
2022-11-22T23:15:58.059Z,95900.81
2022-11-22T23:19:00.088Z,95902.59
2022-11-22T23:22:01.969Z,95900.38
2022-11-22T23:25:03.627Z,95896.91
2022-11-22T23:28:06.292Z,95905.50
2022-11-22T23:31:12.774Z,95895.97
2022-11-22T23:34:14.365Z,95906.72
2022-11-22T23:37:16.092Z,95909.19
2022-11-22T23:40:17.614Z,95916.25
2022-11-22T23:43:19.176Z,95905.66
2022-11-22T23:46:21.489Z,95913.13
2022-11-22T23:49:22.931Z,95914.06
2022-11-22T23:52:24.363Z,95913.81
2022-11-22T23:55:25.857Z,95912.56
2022-11-22T23:58:29.903Z,95924.06
